sensor_id;sensor_type;location;lat;lon;timestamp;temperature;humidity
32536;DHT22;18974;50.838;4.636;2023-04-01T00:01:59;9.90;99.90
32536;DHT22;18974;50.838;4.636;2023-04-01T00:04:25;9.90;99.90
32536;DHT22;18974;50.838;4.636;2023-04-01T00:06:52;9.90;99.90
32536;DHT22;18974;50.838;4.636;2023-04-01T00:09:18;9.90;99.90
32536;DHT22;18974;50.838;4.636;2023-04-01T00:11:44;10.00;99.90
32536;DHT22;18974;50.838;4.636;2023-04-01T00:14:11;10.00;99.90
32536;DHT22;18974;50.838;4.636;2023-04-01T00:16:37;9.90;99.90
32536;DHT22;18974;50.838;4.636;2023-04-01T00:19:03;9.90;99.90
32536;DHT22;18974;50.838;4.636;2023-04-01T00:21:28;10.00;99.90
32536;DHT22;18974;50.838;4.636;2023-04-01T00:23:54;10.00;99.90
32536;DHT22;18974;50.838;4.636;2023-04-01T00:26:20;9.90;99.90
32536;DHT22;18974;50.838;4.636;2023-04-01T00:28:47;10.00;99.90
32536;DHT22;18974;50.838;4.636;2023-04-01T00:31:13;10.00;99.90
32536;DHT22;18974;50.838;4.636;2023-04-01T00:33:40;10.00;99.90
32536;DHT22;18974;50.838;4.636;2023-04-01T00:36:14;9.90;99.90
32536;DHT22;18974;50.838;4.636;2023-04-01T00:38:41;9.90;99.90
32536;DHT22;18974;50.838;4.636;2023-04-01T00:41:07;9.90;99.90
32536;DHT22;18974;50.838;4.636;2023-04-01T00:43:34;9.90;99.90
32536;DHT22;18974;50.838;4.636;2023-04-01T00:46:00;10.00;99.90
32536;DHT22;18974;50.838;4.636;2023-04-01T00:48:33;10.00;99.90
32536;DHT22;18974;50.838;4.636;2023-04-01T00:51:12;10.00;99.90
32536;DHT22;18974;50.838;4.636;2023-04-01T00:53:43;10.00;99.90
32536;DHT22;18974;50.838;4.636;2023-04-01T00:56:19;10.00;99.90
32536;DHT22;18974;50.838;4.636;2023-04-01T00:58:51;9.90;99.90
32536;DHT22;18974;50.838;4.636;2023-04-01T01:01:22;9.90;99.90
32536;DHT22;18974;50.838;4.636;2023-04-01T01:03:49;10.00;99.90
32536;DHT22;18974;50.838;4.636;2023-04-01T01:06:24;9.90;99.90
32536;DHT22;18974;50.838;4.636;2023-04-01T01:11:50;9.90;99.90
32536;DHT22;18974;50.838;4.636;2023-04-01T01:20:24;9.90;99.90
32536;DHT22;18974;50.838;4.636;2023-04-01T01:29:16;10.00;99.90
32536;DHT22;18974;50.838;4.636;2023-04-01T01:34:50;10.20;99.90
32536;DHT22;18974;50.838;4.636;2023-04-01T01:37:22;10.20;99.90
32536;DHT22;18974;50.838;4.636;2023-04-01T01:39:53;10.20;99.90
32536;DHT22;18974;50.838;4.636;2023-04-01T01:42:20;10.20;99.90
32536;DHT22;18974;50.838;4.636;2023-04-01T01:44:50;10.20;99.90
32536;DHT22;18974;50.838;4.636;2023-04-01T01:47:17;10.20;99.90
32536;DHT22;18974;50.838;4.636;2023-04-01T01:49:45;10.10;99.90
32536;DHT22;18974;50.838;4.636;2023-04-01T01:52:12;10.20;99.90
32536;DHT22;18974;50.838;4.636;2023-04-01T01:54:48;10.20;99.90
32536;DHT22;18974;50.838;4.636;2023-04-01T01:57:14;10.20;99.90
32536;DHT22;18974;50.838;4.636;2023-04-01T01:59:42;10.30;99.90
32536;DHT22;18974;50.838;4.636;2023-04-01T02:02:09;10.30;99.90
32536;DHT22;18974;50.838;4.636;2023-04-01T02:04:38;10.40;99.90
32536;DHT22;18974;50.838;4.636;2023-04-01T02:07:10;10.30;99.90
32536;DHT22;18974;50.838;4.636;2023-04-01T02:09:38;10.30;99.90
32536;DHT22;18974;50.838;4.636;2023-04-01T02:12:07;10.30;99.90
32536;DHT22;18974;50.838;4.636;2023-04-01T02:17:18;10.20;99.90
32536;DHT22;18974;50.838;4.636;2023-04-01T02:22:23;10.30;99.90
32536;DHT22;18974;50.838;4.636;2023-04-01T02:24:52;10.20;99.90
32536;DHT22;18974;50.838;4.636;2023-04-01T02:27:20;10.20;99.90
32536;DHT22;18974;50.838;4.636;2023-04-01T02:29:46;10.10;99.90
32536;DHT22;18974;50.838;4.636;2023-04-01T02:32:13;10.10;99.90
32536;DHT22;18974;50.838;4.636;2023-04-01T02:34:39;10.20;99.90
32536;DHT22;18974;50.838;4.636;2023-04-01T02:37:06;10.20;99.90
32536;DHT22;18974;50.838;4.636;2023-04-01T02:39:31;10.20;99.90
32536;DHT22;18974;50.838;4.636;2023-04-01T02:41:57;10.20;99.90
32536;DHT22;18974;50.838;4.636;2023-04-01T02:44:23;10.20;99.90
32536;DHT22;18974;50.838;4.636;2023-04-01T02:46:48;10.20;99.90
32536;DHT22;18974;50.838;4.636;2023-04-01T02:49:14;10.30;99.90
32536;DHT22;18974;50.838;4.636;2023-04-01T02:51:40;10.20;99.90
32536;DHT22;18974;50.838;4.636;2023-04-01T02:54:05;10.20;99.90
32536;DHT22;18974;50.838;4.636;2023-04-01T02:56:31;10.20;99.90
32536;DHT22;18974;50.838;4.636;2023-04-01T02:58:57;10.20;99.90
32536;DHT22;18974;50.838;4.636;2023-04-01T03:01:23;10.20;99.90
32536;DHT22;18974;50.838;4.636;2023-04-01T03:03:48;10.30;99.90
32536;DHT22;18974;50.838;4.636;2023-04-01T03:06:16;10.30;99.90
32536;DHT22;18974;50.838;4.636;2023-04-01T03:08:42;10.20;99.90
32536;DHT22;18974;50.838;4.636;2023-04-01T03:11:09;10.10;99.90
32536;DHT22;18974;50.838;4.636;2023-04-01T03:13:36;10.10;99.90
32536;DHT22;18974;50.838;4.636;2023-04-01T03:16:02;10.10;99.90
32536;DHT22;18974;50.838;4.636;2023-04-01T03:18:27;10.10;99.90
32536;DHT22;18974;50.838;4.636;2023-04-01T03:20:53;10.10;99.90
32536;DHT22;18974;50.838;4.636;2023-04-01T03:23:19;10.10;99.90
32536;DHT22;18974;50.838;4.636;2023-04-01T03:25:47;10.00;99.90
32536;DHT22;18974;50.838;4.636;2023-04-01T03:28:13;10.10;99.90
32536;DHT22;18974;50.838;4.636;2023-04-01T03:30:39;10.10;99.90
32536;DHT22;18974;50.838;4.636;2023-04-01T03:33:06;10.10;99.90
32536;DHT22;18974;50.838;4.636;2023-04-01T03:35:32;10.20;99.90
32536;DHT22;18974;50.838;4.636;2023-04-01T03:37:57;10.20;99.90
32536;DHT22;18974;50.838;4.636;2023-04-01T03:40:24;10.30;99.90
32536;DHT22;18974;50.838;4.636;2023-04-01T03:42:51;10.30;99.90
32536;DHT22;18974;50.838;4.636;2023-04-01T03:45:18;10.20;99.90
32536;DHT22;18974;50.838;4.636;2023-04-01T03:47:43;10.20;99.90
32536;DHT22;18974;50.838;4.636;2023-04-01T03:50:10;10.10;99.90
32536;DHT22;18974;50.838;4.636;2023-04-01T03:52:35;10.10;99.90
32536;DHT22;18974;50.838;4.636;2023-04-01T03:55:02;10.00;99.90
32536;DHT22;18974;50.838;4.636;2023-04-01T03:57:28;10.00;99.90
32536;DHT22;18974;50.838;4.636;2023-04-01T03:59:53;10.10;99.90
32536;DHT22;18974;50.838;4.636;2023-04-01T04:02:19;10.10;99.90
32536;DHT22;18974;50.838;4.636;2023-04-01T04:04:45;10.20;99.90
32536;DHT22;18974;50.838;4.636;2023-04-01T04:07:12;10.20;99.90
32536;DHT22;18974;50.838;4.636;2023-04-01T04:09:37;10.20;99.90
32536;DHT22;18974;50.838;4.636;2023-04-01T04:12:03;10.30;99.90
32536;DHT22;18974;50.838;4.636;2023-04-01T04:14:30;10.20;99.90
32536;DHT22;18974;50.838;4.636;2023-04-01T04:16:56;10.20;99.90
32536;DHT22;18974;50.838;4.636;2023-04-01T04:19:22;10.20;99.90
32536;DHT22;18974;50.838;4.636;2023-04-01T04:21:47;10.30;99.90
32536;DHT22;18974;50.838;4.636;2023-04-01T04:24:13;10.40;99.90
32536;DHT22;18974;50.838;4.636;2023-04-01T04:26:39;10.30;99.90
32536;DHT22;18974;50.838;4.636;2023-04-01T04:29:04;10.30;99.90
32536;DHT22;18974;50.838;4.636;2023-04-01T04:31:30;10.30;99.90
32536;DHT22;18974;50.838;4.636;2023-04-01T04:33:56;10.30;99.90
32536;DHT22;18974;50.838;4.636;2023-04-01T04:36:21;10.30;99.90
32536;DHT22;18974;50.838;4.636;2023-04-01T04:38:47;10.20;99.90
32536;DHT22;18974;50.838;4.636;2023-04-01T04:41:15;10.20;99.90
32536;DHT22;18974;50.838;4.636;2023-04-01T04:43:42;10.10;99.90
32536;DHT22;18974;50.838;4.636;2023-04-01T04:46:09;10.20;99.90
32536;DHT22;18974;50.838;4.636;2023-04-01T04:48:35;10.20;99.90
32536;DHT22;18974;50.838;4.636;2023-04-01T04:51:01;10.20;99.90
32536;DHT22;18974;50.838;4.636;2023-04-01T04:53:26;10.20;99.90
32536;DHT22;18974;50.838;4.636;2023-04-01T04:55:52;10.20;99.90
32536;DHT22;18974;50.838;4.636;2023-04-01T04:58:18;10.20;99.90
32536;DHT22;18974;50.838;4.636;2023-04-01T05:00:44;10.20;99.90
32536;DHT22;18974;50.838;4.636;2023-04-01T05:03:11;10.10;99.90
32536;DHT22;18974;50.838;4.636;2023-04-01T05:05:37;10.10;99.90
32536;DHT22;18974;50.838;4.636;2023-04-01T05:08:03;10.20;99.90
32536;DHT22;18974;50.838;4.636;2023-04-01T05:10:29;10.10;99.90
32536;DHT22;18974;50.838;4.636;2023-04-01T05:12:54;10.10;99.90
32536;DHT22;18974;50.838;4.636;2023-04-01T05:15:20;10.20;99.90
32536;DHT22;18974;50.838;4.636;2023-04-01T05:17:46;10.20;99.90
32536;DHT22;18974;50.838;4.636;2023-04-01T05:20:12;10.10;99.90
32536;DHT22;18974;50.838;4.636;2023-04-01T05:22:38;10.10;99.90
32536;DHT22;18974;50.838;4.636;2023-04-01T05:25:04;10.20;99.90
32536;DHT22;18974;50.838;4.636;2023-04-01T05:27:30;10.10;99.90
32536;DHT22;18974;50.838;4.636;2023-04-01T05:29:56;10.10;99.90
32536;DHT22;18974;50.838;4.636;2023-04-01T05:32:21;10.10;99.90
32536;DHT22;18974;50.838;4.636;2023-04-01T05:34:50;10.10;99.90
32536;DHT22;18974;50.838;4.636;2023-04-01T05:37:16;10.20;99.90
32536;DHT22;18974;50.838;4.636;2023-04-01T05:39:42;10.20;99.90
32536;DHT22;18974;50.838;4.636;2023-04-01T05:42:08;10.30;99.90
32536;DHT22;18974;50.838;4.636;2023-04-01T05:44:35;10.30;99.90
32536;DHT22;18974;50.838;4.636;2023-04-01T05:47:01;10.30;99.90
32536;DHT22;18974;50.838;4.636;2023-04-01T05:49:27;10.30;99.90
32536;DHT22;18974;50.838;4.636;2023-04-01T05:51:53;10.30;99.90
32536;DHT22;18974;50.838;4.636;2023-04-01T05:54:19;10.30;99.90
32536;DHT22;18974;50.838;4.636;2023-04-01T05:56:45;10.20;99.90
32536;DHT22;18974;50.838;4.636;2023-04-01T05:59:11;10.10;99.90
32536;DHT22;18974;50.838;4.636;2023-04-01T06:01:37;10.10;99.90
32536;DHT22;18974;50.838;4.636;2023-04-01T06:04:03;10.20;99.90
32536;DHT22;18974;50.838;4.636;2023-04-01T06:06:30;10.20;99.90
32536;DHT22;18974;50.838;4.636;2023-04-01T06:09:04;10.20;99.90
32536;DHT22;18974;50.838;4.636;2023-04-01T06:17:22;10.30;99.90
32536;DHT22;18974;50.838;4.636;2023-04-01T06:22:42;10.30;99.90
32536;DHT22;18974;50.838;4.636;2023-04-01T06:50:16;10.20;99.90
32536;DHT22;18974;50.838;4.636;2023-04-01T06:58:20;10.20;99.90
32536;DHT22;18974;50.838;4.636;2023-04-01T07:00:50;10.10;99.90
32536;DHT22;18974;50.838;4.636;2023-04-01T07:05:49;10.20;99.90
32536;DHT22;18974;50.838;4.636;2023-04-01T07:08:20;10.20;99.90
32536;DHT22;18974;50.838;4.636;2023-04-01T07:11:08;10.20;99.90
32536;DHT22;18974;50.838;4.636;2023-04-01T07:13:51;10.30;99.90
32536;DHT22;18974;50.838;4.636;2023-04-01T07:19:12;10.30;99.90
32536;DHT22;18974;50.838;4.636;2023-04-01T07:21:56;10.30;99.90
32536;DHT22;18974;50.838;4.636;2023-04-01T07:24:50;10.30;99.90
32536;DHT22;18974;50.838;4.636;2023-04-01T07:27:16;10.30;99.90
32536;DHT22;18974;50.838;4.636;2023-04-01T07:29:42;10.40;99.90
32536;DHT22;18974;50.838;4.636;2023-04-01T07:51:19;10.70;99.90
32536;DHT22;18974;50.838;4.636;2023-04-01T07:56:17;10.70;99.90
32536;DHT22;18974;50.838;4.636;2023-04-01T08:10:01;11.00;99.90
32536;DHT22;18974;50.838;4.636;2023-04-01T08:15:23;11.00;99.90
32536;DHT22;18974;50.838;4.636;2023-04-01T08:18:04;11.10;99.90
32536;DHT22;18974;50.838;4.636;2023-04-01T08:20:37;11.10;99.90
32536;DHT22;18974;50.838;4.636;2023-04-01T08:23:21;11.00;99.90
32536;DHT22;18974;50.838;4.636;2023-04-01T08:26:04;11.00;99.90
32536;DHT22;18974;50.838;4.636;2023-04-01T08:28:36;11.00;99.90
32536;DHT22;18974;50.838;4.636;2023-04-01T08:33:34;11.10;99.90
32536;DHT22;18974;50.838;4.636;2023-04-01T08:36:13;11.10;99.90
32536;DHT22;18974;50.838;4.636;2023-04-01T08:38:44;11.00;99.90
32536;DHT22;18974;50.838;4.636;2023-04-01T08:52:37;11.10;99.90
32536;DHT22;18974;50.838;4.636;2023-04-01T09:00:38;11.10;99.90
32536;DHT22;18974;50.838;4.636;2023-04-01T09:21:27;11.70;99.90
32536;DHT22;18974;50.838;4.636;2023-04-01T09:29:42;11.60;99.90
32536;DHT22;18974;50.838;4.636;2023-04-01T09:32:32;11.50;99.90
32536;DHT22;18974;50.838;4.636;2023-04-01T09:35:39;11.70;99.90
32536;DHT22;18974;50.838;4.636;2023-04-01T09:40:59;11.80;99.90
32536;DHT22;18974;50.838;4.636;2023-04-01T09:52:05;11.70;99.90
32536;DHT22;18974;50.838;4.636;2023-04-01T09:57:19;11.60;99.90
32536;DHT22;18974;50.838;4.636;2023-04-01T10:05:34;11.60;99.90
32536;DHT22;18974;50.838;4.636;2023-04-01T10:08:18;11.90;99.90
32536;DHT22;18974;50.838;4.636;2023-04-01T10:36:18;12.70;99.90
32536;DHT22;18974;50.838;4.636;2023-04-01T10:39:17;12.70;99.90
32536;DHT22;18974;50.838;4.636;2023-04-01T10:44:52;12.50;99.90
32536;DHT22;18974;50.838;4.636;2023-04-01T10:50:20;12.30;99.90
32536;DHT22;18974;50.838;4.636;2023-04-01T11:09:08;12.10;99.90
32536;DHT22;18974;50.838;4.636;2023-04-01T11:31:04;12.90;99.90
32536;DHT22;18974;50.838;4.636;2023-04-01T11:44:35;12.70;99.90
32536;DHT22;18974;50.838;4.636;2023-04-01T11:58:27;12.80;99.90
32536;DHT22;18974;50.838;4.636;2023-04-01T12:07:19;12.80;99.90
32536;DHT22;18974;50.838;4.636;2023-04-01T12:10:02;12.90;99.90
32536;DHT22;18974;50.838;4.636;2023-04-01T12:15:29;13.10;99.90
32536;DHT22;18974;50.838;4.636;2023-04-01T12:18:17;13.20;99.90
32536;DHT22;18974;50.838;4.636;2023-04-01T12:21:11;13.10;99.90
32536;DHT22;18974;50.838;4.636;2023-04-01T12:32:09;13.10;99.90
32536;DHT22;18974;50.838;4.636;2023-04-01T12:35:40;13.00;99.90
32536;DHT22;18974;50.838;4.636;2023-04-01T12:46:52;12.40;99.90
32536;DHT22;18974;50.838;4.636;2023-04-01T12:52:08;12.70;99.90
32536;DHT22;18974;50.838;4.636;2023-04-01T13:00:05;12.80;99.90
32536;DHT22;18974;50.838;4.636;2023-04-01T13:11:19;12.40;99.90
32536;DHT22;18974;50.838;4.636;2023-04-01T13:16:52;12.50;99.90
32536;DHT22;18974;50.838;4.636;2023-04-01T13:22:13;12.50;99.90
32536;DHT22;18974;50.838;4.636;2023-04-01T13:32:34;12.70;99.90
32536;DHT22;18974;50.838;4.636;2023-04-01T13:35:20;12.60;99.90
32536;DHT22;18974;50.838;4.636;2023-04-01T13:38:00;12.40;99.90
32536;DHT22;18974;50.838;4.636;2023-04-01T13:43:34;12.40;99.90
32536;DHT22;18974;50.838;4.636;2023-04-01T13:51:04;12.50;99.90
32536;DHT22;18974;50.838;4.636;2023-04-01T13:54:00;12.50;99.90
32536;DHT22;18974;50.838;4.636;2023-04-01T13:56:48;12.50;99.90
32536;DHT22;18974;50.838;4.636;2023-04-01T14:12:14;12.80;99.90
32536;DHT22;18974;50.838;4.636;2023-04-01T14:18:19;13.00;99.90
32536;DHT22;18974;50.838;4.636;2023-04-01T14:24:14;13.00;99.90
32536;DHT22;18974;50.838;4.636;2023-04-01T14:35:22;12.70;99.90
32536;DHT22;18974;50.838;4.636;2023-04-01T14:49:32;12.60;99.90
32536;DHT22;18974;50.838;4.636;2023-04-01T14:52:14;12.70;99.90
32536;DHT22;18974;50.838;4.636;2023-04-01T14:54:44;12.80;99.90
32536;DHT22;18974;50.838;4.636;2023-04-01T14:57:33;12.80;99.90
32536;DHT22;18974;50.838;4.636;2023-04-01T15:02:50;12.80;99.90
32536;DHT22;18974;50.838;4.636;2023-04-01T15:08:20;12.90;99.90
32536;DHT22;18974;50.838;4.636;2023-04-01T15:19:00;12.60;99.90
32536;DHT22;18974;50.838;4.636;2023-04-01T15:30:06;12.90;99.90
32536;DHT22;18974;50.838;4.636;2023-04-01T15:35:39;12.90;99.90
32536;DHT22;18974;50.838;4.636;2023-04-01T15:38:30;12.70;99.90
32536;DHT22;18974;50.838;4.636;2023-04-01T15:41:02;12.80;99.90
32536;DHT22;18974;50.838;4.636;2023-04-01T15:43:42;12.80;99.90
32536;DHT22;18974;50.838;4.636;2023-04-01T15:51:51;12.70;99.90
32536;DHT22;18974;50.838;4.636;2023-04-01T15:54:38;12.60;99.90
32536;DHT22;18974;50.838;4.636;2023-04-01T16:00:06;12.50;99.90
32536;DHT22;18974;50.838;4.636;2023-04-01T16:02:52;12.40;99.90
32536;DHT22;18974;50.838;4.636;2023-04-01T16:05:34;12.20;99.90
32536;DHT22;18974;50.838;4.636;2023-04-01T16:16:29;12.40;99.90
32536;DHT22;18974;50.838;4.636;2023-04-01T16:21:46;12.20;99.90
32536;DHT22;18974;50.838;4.636;2023-04-01T16:27:40;12.10;99.90
32536;DHT22;18974;50.838;4.636;2023-04-01T16:33:24;11.90;99.90
32536;DHT22;18974;50.838;4.636;2023-04-01T16:36:07;11.90;99.90
32536;DHT22;18974;50.838;4.636;2023-04-01T16:41:24;11.80;99.90
32536;DHT22;18974;50.838;4.636;2023-04-01T16:44:22;12.00;99.90
32536;DHT22;18974;50.838;4.636;2023-04-01T16:46:56;11.80;99.90
32536;DHT22;18974;50.838;4.636;2023-04-01T16:49:29;11.70;99.90
32536;DHT22;18974;50.838;4.636;2023-04-01T16:57:36;11.60;99.90
32536;DHT22;18974;50.838;4.636;2023-04-01T17:03:13;11.40;99.90
32536;DHT22;18974;50.838;4.636;2023-04-01T17:11:24;11.30;99.90
32536;DHT22;18974;50.838;4.636;2023-04-01T17:14:01;11.20;99.90
32536;DHT22;18974;50.838;4.636;2023-04-01T17:30:57;11.10;99.90
32536;DHT22;18974;50.838;4.636;2023-04-01T17:42:00;11.10;99.90
32536;DHT22;18974;50.838;4.636;2023-04-01T17:52:47;10.90;99.90
32536;DHT22;18974;50.838;4.636;2023-04-01T17:58:03;10.90;99.90
32536;DHT22;18974;50.838;4.636;2023-04-01T18:06:32;10.90;99.90
32536;DHT22;18974;50.838;4.636;2023-04-01T18:23:14;10.60;99.90
32536;DHT22;18974;50.838;4.636;2023-04-01T18:25:47;10.70;99.90
32536;DHT22;18974;50.838;4.636;2023-04-01T18:28:36;10.70;99.90
32536;DHT22;18974;50.838;4.636;2023-04-01T18:31:08;10.80;99.90
32536;DHT22;18974;50.838;4.636;2023-04-01T18:34:02;10.80;99.90
32536;DHT22;18974;50.838;4.636;2023-04-01T18:36:55;10.80;99.90
32536;DHT22;18974;50.838;4.636;2023-04-01T18:39:40;10.90;99.90
32536;DHT22;18974;50.838;4.636;2023-04-01T18:42:43;10.90;99.90
32536;DHT22;18974;50.838;4.636;2023-04-01T18:46:13;10.80;99.90
32536;DHT22;18974;50.838;4.636;2023-04-01T18:54:02;10.90;99.90
32536;DHT22;18974;50.838;4.636;2023-04-01T18:56:34;10.90;99.90
32536;DHT22;18974;50.838;4.636;2023-04-01T19:02:16;10.80;99.90
32536;DHT22;18974;50.838;4.636;2023-04-01T19:05:08;10.80;99.90
32536;DHT22;18974;50.838;4.636;2023-04-01T19:07:46;10.80;99.90
32536;DHT22;18974;50.838;4.636;2023-04-01T19:10:17;10.80;99.90
32536;DHT22;18974;50.838;4.636;2023-04-01T19:15:27;10.80;99.90
32536;DHT22;18974;50.838;4.636;2023-04-01T19:23:38;10.80;99.90
32536;DHT22;18974;50.838;4.636;2023-04-01T19:26:14;10.90;99.90
32536;DHT22;18974;50.838;4.636;2023-04-01T19:29:17;10.90;99.90
32536;DHT22;18974;50.838;4.636;2023-04-01T19:36:59;10.70;99.90
32536;DHT22;18974;50.838;4.636;2023-04-01T19:39:56;10.70;99.90
32536;DHT22;18974;50.838;4.636;2023-04-01T19:45:24;10.80;99.90
32536;DHT22;18974;50.838;4.636;2023-04-01T19:48:11;10.70;99.90
32536;DHT22;18974;50.838;4.636;2023-04-01T19:50:55;10.70;99.90
32536;DHT22;18974;50.838;4.636;2023-04-01T19:56:21;10.70;99.90
32536;DHT22;18974;50.838;4.636;2023-04-01T20:01:49;10.70;99.90
32536;DHT22;18974;50.838;4.636;2023-04-01T20:04:53;10.70;99.90
32536;DHT22;18974;50.838;4.636;2023-04-01T20:07:37;10.80;99.90
32536;DHT22;18974;50.838;4.636;2023-04-01T20:10:14;10.70;99.90
32536;DHT22;18974;50.838;4.636;2023-04-01T20:15:37;10.70;99.90
32536;DHT22;18974;50.838;4.636;2023-04-01T20:18:38;10.60;99.90
32536;DHT22;18974;50.838;4.636;2023-04-01T20:23:49;10.60;99.90
32536;DHT22;18974;50.838;4.636;2023-04-01T20:26:21;10.60;99.90
32536;DHT22;18974;50.838;4.636;2023-04-01T20:31:36;10.60;99.90
32536;DHT22;18974;50.838;4.636;2023-04-01T20:34:27;10.60;99.90
32536;DHT22;18974;50.838;4.636;2023-04-01T20:39:55;10.60;99.90
32536;DHT22;18974;50.838;4.636;2023-04-01T20:42:39;10.60;99.90
32536;DHT22;18974;50.838;4.636;2023-04-01T20:48:26;10.60;99.90
32536;DHT22;18974;50.838;4.636;2023-04-01T20:51:16;10.60;99.90
32536;DHT22;18974;50.838;4.636;2023-04-01T21:02:32;10.60;99.90
32536;DHT22;18974;50.838;4.636;2023-04-01T21:05:57;10.70;99.90
32536;DHT22;18974;50.838;4.636;2023-04-01T21:17:27;10.70;99.90
32536;DHT22;18974;50.838;4.636;2023-04-01T21:22:49;10.80;99.90
32536;DHT22;18974;50.838;4.636;2023-04-01T21:33:49;10.70;99.90
32536;DHT22;18974;50.838;4.636;2023-04-01T21:36:52;10.70;99.90
32536;DHT22;18974;50.838;4.636;2023-04-01T21:45:36;10.70;99.90
32536;DHT22;18974;50.838;4.636;2023-04-01T21:51:31;10.80;99.90
32536;DHT22;18974;50.838;4.636;2023-04-01T21:56:49;10.70;99.90
32536;DHT22;18974;50.838;4.636;2023-04-01T22:02:12;10.80;99.90
32536;DHT22;18974;50.838;4.636;2023-04-01T22:04:52;10.80;99.90
32536;DHT22;18974;50.838;4.636;2023-04-01T22:07:22;10.80;99.90
32536;DHT22;18974;50.838;4.636;2023-04-01T22:09:54;10.70;99.90
32536;DHT22;18974;50.838;4.636;2023-04-01T22:12:35;10.70;99.90
32536;DHT22;18974;50.838;4.636;2023-04-01T22:17:51;10.60;99.90
32536;DHT22;18974;50.838;4.636;2023-04-01T22:26:24;10.40;99.90
32536;DHT22;18974;50.838;4.636;2023-04-01T22:29:13;10.50;99.90
32536;DHT22;18974;50.838;4.636;2023-04-01T22:31:56;10.40;99.90
32536;DHT22;18974;50.838;4.636;2023-04-01T22:34:39;10.40;99.90
32536;DHT22;18974;50.838;4.636;2023-04-01T22:37:23;10.40;99.90
32536;DHT22;18974;50.838;4.636;2023-04-01T22:48:00;10.20;99.90
32536;DHT22;18974;50.838;4.636;2023-04-01T22:56:09;10.20;99.90
32536;DHT22;18974;50.838;4.636;2023-04-01T22:58:42;10.20;99.90
32536;DHT22;18974;50.838;4.636;2023-04-01T23:01:17;10.30;99.90
32536;DHT22;18974;50.838;4.636;2023-04-01T23:03:49;10.20;99.90
32536;DHT22;18974;50.838;4.636;2023-04-01T23:06:20;10.20;99.90
32536;DHT22;18974;50.838;4.636;2023-04-01T23:11:53;10.20;99.90
32536;DHT22;18974;50.838;4.636;2023-04-01T23:19:35;10.20;99.90
32536;DHT22;18974;50.838;4.636;2023-04-01T23:24:51;10.20;99.90
32536;DHT22;18974;50.838;4.636;2023-04-01T23:27:31;10.30;99.90
32536;DHT22;18974;50.838;4.636;2023-04-01T23:30:00;10.20;99.90
32536;DHT22;18974;50.838;4.636;2023-04-01T23:32:27;10.30;99.90
32536;DHT22;18974;50.838;4.636;2023-04-01T23:34:56;10.20;99.90
32536;DHT22;18974;50.838;4.636;2023-04-01T23:37:23;10.10;99.90
32536;DHT22;18974;50.838;4.636;2023-04-01T23:39:54;10.10;99.90
32536;DHT22;18974;50.838;4.636;2023-04-01T23:42:30;10.00;99.90
32536;DHT22;18974;50.838;4.636;2023-04-01T23:45:03;10.10;99.90
32536;DHT22;18974;50.838;4.636;2023-04-01T23:47:32;10.00;99.90
32536;DHT22;18974;50.838;4.636;2023-04-01T23:50:27;9.90;99.90
32536;DHT22;18974;50.838;4.636;2023-04-01T23:53:02;9.90;99.90
32536;DHT22;18974;50.838;4.636;2023-04-01T23:55:32;9.90;99.90
